Saint-Jovite, Quebec

10:03 AM EDT on August 29, 2016 (GMT -0400)
Lac a L'ile | | Change Station

Elev 1657 ft 46.20 °N, 74.33 °W | Updated 7 seconds ago

Partly Cloudy
Partly Cloudy
60.6 °F
Feels Like 60.6 °F
N
1.3
Wind Variable Wind from ESE
Gusts 2.5 mph

Today
High -- | Low -- °F
--% Chance of Precip.
Yesterday
High -- | Low -- °F
Precip. -- in
Pressure 30.14 in
Visibility 45.0 miles
Clouds Few 4000 ft
Dew Point 51 °F
Humidity 70%
Rainfall 0.00 in
Snow Depth Not available.
6:15 AM 7:41 PM
Waning Crescent, 8% visible
METAR CYMX 291300Z 32011G23KT 45SM FEW040 19/14 A3013 RMK CU2 SLP204 DENSITY ALT 500FT
Pressure 30.14 in
Visibility 45.0 miles
Clouds Few 4000 ft
Dew Point 51 °F
Humidity 70%
Rainfall 0.00 in
Snow Depth Not available.
6:15 AM 7:41 PM
Waning Crescent, 8% visible
METAR CYMX 291300Z 32011G23KT 45SM FEW040 19/14 A3013 RMK CU2 SLP204 DENSITY ALT 500FT

10-Day Weather Forecast

Almanac

Astronomy

Aug. 29, 2016 Rise Set
Actual Time
Civil Twilight
Nautical Twilight
Astronomical Twilight
Moon
Length of Visible Light
Length of Day
Tomorrow will be .
, % of the Moon is Illuminated

Today's Extremes

Country Highs Country Lows

Community

WunderPhotos

Upload Photos

1,935,822 photos uploaded!

WunderBlog® & News

Nearby

Air Quality

  Air Quality AQ Index Pollutant
Not available.

Snow Depth

Station Depth Elevation

Earthquake Activity

City Distance Mag. Time & Date
Minimum magnitude displayed is 2.5.

Coastal Water Temperatures

Place Temperature

Stations

Nearby Weather Stations

Station Location Temp. Windchill Dew Point Humidity Wind Precip. Elev Updated Type
                   

Watches & Warnings

There are currently no watches in effect.